sensor_id;sensor_type;location;lat;lon;timestamp;P1;durP1;ratioP1;P2;durP2;ratioP2
55170;SDS011;41060;47.510;8.680;2024-02-23T00:01:11;0.10;;;0.10;;
55170;SDS011;41060;47.510;8.680;2024-02-23T00:03:37;0.95;;;0.30;;
55170;SDS011;41060;47.510;8.680;2024-02-23T00:06:05;0.88;;;0.57;;
55170;SDS011;41060;47.510;8.680;2024-02-23T00:08:34;0.00;;;0.00;;
55170;SDS011;41060;47.510;8.680;2024-02-23T00:11:01;0.43;;;0.28;;
55170;SDS011;41060;47.510;8.680;2024-02-23T00:13:27;0.15;;;0.15;;
55170;SDS011;41060;47.510;8.680;2024-02-23T00:15:54;0.47;;;0.10;;
55170;SDS011;41060;47.510;8.680;2024-02-23T00:18:21;0.13;;;0.10;;
55170;SDS011;41060;47.510;8.680;2024-02-23T00:20:52;0.10;;;0.10;;
55170;SDS011;41060;47.510;8.680;2024-02-23T00:23:20;0.10;;;0.10;;
55170;SDS011;41060;47.510;8.680;2024-02-23T00:25:47;0.60;;;0.22;;
55170;SDS011;41060;47.510;8.680;2024-02-23T00:28:13;0.10;;;0.10;;
55170;SDS011;41060;47.510;8.680;2024-02-23T00:30:41;0.08;;;0.08;;
55170;SDS011;41060;47.510;8.680;2024-02-23T00:33:07;3.25;;;0.30;;
55170;SDS011;41060;47.510;8.680;2024-02-23T00:35:35;0.20;;;0.15;;
55170;SDS011;41060;47.510;8.680;2024-02-23T00:38:02;0.30;;;0.13;;
55170;SDS011;41060;47.510;8.680;2024-02-23T00:40:30;0.10;;;0.10;;
55170;SDS011;41060;47.510;8.680;2024-02-23T00:42:57;0.20;;;0.20;;
55170;SDS011;41060;47.510;8.680;2024-02-23T00:45:28;1.00;;;0.10;;
55170;SDS011;41060;47.510;8.680;2024-02-23T00:47:55;0.00;;;0.00;;
55170;SDS011;41060;47.510;8.680;2024-02-23T00:50:22;0.22;;;0.13;;
55170;SDS011;41060;47.510;8.680;2024-02-23T00:52:50;0.55;;;0.13;;
55170;SDS011;41060;47.510;8.680;2024-02-23T00:55:20;0.90;;;0.17;;
55170;SDS011;41060;47.510;8.680;2024-02-23T00:57:48;0.10;;;0.10;;
55170;SDS011;41060;47.510;8.680;2024-02-23T01:00:15;0.10;;;0.10;;
55170;SDS011;41060;47.510;8.680;2024-02-23T01:02:42;18.33;;;0.98;;
55170;SDS011;41060;47.510;8.680;2024-02-23T01:05:11;1.55;;;0.30;;
55170;SDS011;41060;47.510;8.680;2024-02-23T01:07:38;0.95;;;0.20;;
55170;SDS011;41060;47.510;8.680;2024-02-23T01:10:05;0.10;;;0.10;;
55170;SDS011;41060;47.510;8.680;2024-02-23T01:12:34;0.20;;;0.20;;
55170;SDS011;41060;47.510;8.680;2024-02-23T01:15:04;0.10;;;0.10;;
55170;SDS011;41060;47.510;8.680;2024-02-23T01:17:33;1.13;;;0.10;;
55170;SDS011;41060;47.510;8.680;2024-02-23T01:19:59;0.10;;;0.10;;
55170;SDS011;41060;47.510;8.680;2024-02-23T01:22:26;0.13;;;0.13;;
55170;SDS011;41060;47.510;8.680;2024-02-23T01:24:53;0.00;;;0.00;;
55170;SDS011;41060;47.510;8.680;2024-02-23T01:27:20;0.10;;;0.10;;
55170;SDS011;41060;47.510;8.680;2024-02-23T01:29:47;0.28;;;0.28;;
55170;SDS011;41060;47.510;8.680;2024-02-23T01:32:15;0.10;;;0.10;;
55170;SDS011;41060;47.510;8.680;2024-02-23T01:34:42;0.08;;;0.08;;
55170;SDS011;41060;47.510;8.680;2024-02-23T01:37:09;0.10;;;0.10;;
55170;SDS011;41060;47.510;8.680;2024-02-23T01:39:36;0.10;;;0.10;;
55170;SDS011;41060;47.510;8.680;2024-02-23T01:42:03;2.83;;;0.10;;
55170;SDS011;41060;47.510;8.680;2024-02-23T01:44:31;0.47;;;0.10;;
55170;SDS011;41060;47.510;8.680;2024-02-23T01:46:58;0.00;;;0.00;;
55170;SDS011;41060;47.510;8.680;2024-02-23T01:49:26;0.10;;;0.10;;
55170;SDS011;41060;47.510;8.680;2024-02-23T01:51:57;1.13;;;0.28;;
55170;SDS011;41060;47.510;8.680;2024-02-23T01:54:23;0.30;;;0.20;;
55170;SDS011;41060;47.510;8.680;2024-02-23T01:56:50;0.10;;;0.10;;
55170;SDS011;41060;47.510;8.680;2024-02-23T01:59:18;0.10;;;0.10;;
55170;SDS011;41060;47.510;8.680;2024-02-23T02:01:45;0.20;;;0.20;;
55170;SDS011;41060;47.510;8.680;2024-02-23T02:04:12;2.10;;;0.65;;
55170;SDS011;41060;47.510;8.680;2024-02-23T02:06:44;0.10;;;0.10;;
55170;SDS011;41060;47.510;8.680;2024-02-23T02:09:12;0.40;;;0.22;;
55170;SDS011;41060;47.510;8.680;2024-02-23T02:11:44;0.10;;;0.10;;
55170;SDS011;41060;47.510;8.680;2024-02-23T02:14:11;0.10;;;0.10;;
55170;SDS011;41060;47.510;8.680;2024-02-23T02:16:39;0.10;;;0.10;;
55170;SDS011;41060;47.510;8.680;2024-02-23T02:19:05;0.57;;;0.22;;
55170;SDS011;41060;47.510;8.680;2024-02-23T02:21:32;0.30;;;0.10;;
55170;SDS011;41060;47.510;8.680;2024-02-23T02:24:02;0.10;;;0.10;;
55170;SDS011;41060;47.510;8.680;2024-02-23T02:26:29;0.32;;;0.20;;
55170;SDS011;41060;47.510;8.680;2024-02-23T02:28:56;3.50;;;0.20;;
55170;SDS011;41060;47.510;8.680;2024-02-23T02:31:23;0.28;;;0.13;;
55170;SDS011;41060;47.510;8.680;2024-02-23T02:33:50;0.17;;;0.10;;
55170;SDS011;41060;47.510;8.680;2024-02-23T02:36:16;0.22;;;0.20;;
55170;SDS011;41060;47.510;8.680;2024-02-23T02:38:52;1.48;;;0.30;;
55170;SDS011;41060;47.510;8.680;2024-02-23T02:41:20;0.10;;;0.10;;
55170;SDS011;41060;47.510;8.680;2024-02-23T02:43:50;0.28;;;0.20;;
55170;SDS011;41060;47.510;8.680;2024-02-23T02:46:17;0.17;;;0.13;;
55170;SDS011;41060;47.510;8.680;2024-02-23T02:48:44;1.02;;;0.40;;
55170;SDS011;41060;47.510;8.680;2024-02-23T02:51:13;0.30;;;0.20;;
55170;SDS011;41060;47.510;8.680;2024-02-23T02:53:40;0.10;;;0.10;;
55170;SDS011;41060;47.510;8.680;2024-02-23T02:56:07;4.28;;;0.32;;
55170;SDS011;41060;47.510;8.680;2024-02-23T02:58:35;0.10;;;0.10;;
55170;SDS011;41060;47.510;8.680;2024-02-23T03:01:02;0.10;;;0.10;;
55170;SDS011;41060;47.510;8.680;2024-02-23T03:03:31;0.10;;;0.10;;
55170;SDS011;41060;47.510;8.680;2024-02-23T03:06:00;0.68;;;0.10;;
55170;SDS011;41060;47.510;8.680;2024-02-23T03:08:27;0.10;;;0.10;;
55170;SDS011;41060;47.510;8.680;2024-02-23T03:10:54;0.32;;;0.22;;
55170;SDS011;41060;47.510;8.680;2024-02-23T03:13:22;0.20;;;0.20;;
55170;SDS011;41060;47.510;8.680;2024-02-23T03:15:50;0.20;;;0.20;;
55170;SDS011;41060;47.510;8.680;2024-02-23T03:18:17;0.10;;;0.10;;
55170;SDS011;41060;47.510;8.680;2024-02-23T03:20:44;0.52;;;0.35;;
55170;SDS011;41060;47.510;8.680;2024-02-23T03:23:11;1.80;;;0.32;;
55170;SDS011;41060;47.510;8.680;2024-02-23T03:25:37;1.08;;;0.32;;
55170;SDS011;41060;47.510;8.680;2024-02-23T03:28:04;0.55;;;0.28;;
55170;SDS011;41060;47.510;8.680;2024-02-23T03:30:32;0.73;;;0.28;;
55170;SDS011;41060;47.510;8.680;2024-02-23T03:33:00;0.25;;;0.25;;
55170;SDS011;41060;47.510;8.680;2024-02-23T03:35:26;0.20;;;0.20;;
55170;SDS011;41060;47.510;8.680;2024-02-23T03:37:53;0.57;;;0.28;;
55170;SDS011;41060;47.510;8.680;2024-02-23T03:40:20;0.10;;;0.10;;
55170;SDS011;41060;47.510;8.680;2024-02-23T03:42:48;0.50;;;0.38;;
55170;SDS011;41060;47.510;8.680;2024-02-23T03:45:16;0.75;;;0.40;;
55170;SDS011;41060;47.510;8.680;2024-02-23T03:47:44;0.40;;;0.40;;
55170;SDS011;41060;47.510;8.680;2024-02-23T03:50:12;0.20;;;0.20;;
55170;SDS011;41060;47.510;8.680;2024-02-23T03:52:40;0.40;;;0.40;;
55170;SDS011;41060;47.510;8.680;2024-02-23T03:55:06;0.28;;;0.28;;
55170;SDS011;41060;47.510;8.680;2024-02-23T03:57:33;1.85;;;0.40;;
55170;SDS011;41060;47.510;8.680;2024-02-23T04:00:00;0.20;;;0.20;;
55170;SDS011;41060;47.510;8.680;2024-02-23T04:02:27;0.52;;;0.20;;
55170;SDS011;41060;47.510;8.680;2024-02-23T04:04:54;2.20;;;0.35;;
55170;SDS011;41060;47.510;8.680;2024-02-23T04:07:22;0.10;;;0.10;;
55170;SDS011;41060;47.510;8.680;2024-02-23T04:09:49;0.40;;;0.30;;
55170;SDS011;41060;47.510;8.680;2024-02-23T04:12:17;0.98;;;0.40;;
55170;SDS011;41060;47.510;8.680;2024-02-23T04:14:44;0.40;;;0.20;;
55170;SDS011;41060;47.510;8.680;2024-02-23T04:17:14;0.50;;;0.30;;
55170;SDS011;41060;47.510;8.680;2024-02-23T04:19:40;2.78;;;0.55;;
55170;SDS011;41060;47.510;8.680;2024-02-23T04:22:08;0.38;;;0.15;;
55170;SDS011;41060;47.510;8.680;2024-02-23T04:24:40;0.77;;;0.30;;
55170;SDS011;41060;47.510;8.680;2024-02-23T04:27:07;0.63;;;0.38;;
55170;SDS011;41060;47.510;8.680;2024-02-23T04:29:34;1.15;;;0.30;;
55170;SDS011;41060;47.510;8.680;2024-02-23T04:32:01;0.40;;;0.30;;
55170;SDS011;41060;47.510;8.680;2024-02-23T04:34:29;4.22;;;0.20;;
55170;SDS011;41060;47.510;8.680;2024-02-23T04:36:58;0.70;;;0.50;;
55170;SDS011;41060;47.510;8.680;2024-02-23T04:39:25;1.17;;;0.30;;
55170;SDS011;41060;47.510;8.680;2024-02-23T04:41:53;0.17;;;0.15;;
55170;SDS011;41060;47.510;8.680;2024-02-23T04:44:20;0.30;;;0.22;;
55170;SDS011;41060;47.510;8.680;2024-02-23T04:46:47;0.30;;;0.30;;
55170;SDS011;41060;47.510;8.680;2024-02-23T04:49:14;0.60;;;0.40;;
55170;SDS011;41060;47.510;8.680;2024-02-23T04:51:40;1.75;;;0.60;;
55170;SDS011;41060;47.510;8.680;2024-02-23T04:54:07;0.60;;;0.32;;
55170;SDS011;41060;47.510;8.680;2024-02-23T04:56:34;1.02;;;0.30;;
55170;SDS011;41060;47.510;8.680;2024-02-23T04:59:02;1.42;;;0.55;;
55170;SDS011;41060;47.510;8.680;2024-02-23T05:01:29;0.82;;;0.50;;
55170;SDS011;41060;47.510;8.680;2024-02-23T05:04:01;0.82;;;0.50;;
55170;SDS011;41060;47.510;8.680;2024-02-23T05:06:28;0.55;;;0.45;;
55170;SDS011;41060;47.510;8.680;2024-02-23T05:08:55;0.38;;;0.38;;
55170;SDS011;41060;47.510;8.680;2024-02-23T05:11:22;0.40;;;0.32;;
55170;SDS011;41060;47.510;8.680;2024-02-23T05:13:49;0.40;;;0.40;;
55170;SDS011;41060;47.510;8.680;2024-02-23T05:16:16;0.20;;;0.20;;
55170;SDS011;41060;47.510;8.680;2024-02-23T05:18:44;0.25;;;0.20;;
55170;SDS011;41060;47.510;8.680;2024-02-23T05:21:11;4.57;;;0.82;;
55170;SDS011;41060;47.510;8.680;2024-02-23T05:23:40;0.57;;;0.40;;
55170;SDS011;41060;47.510;8.680;2024-02-23T05:26:08;0.25;;;0.25;;
55170;SDS011;41060;47.510;8.680;2024-02-23T05:28:35;1.67;;;0.45;;
55170;SDS011;41060;47.510;8.680;2024-02-23T05:31:03;0.25;;;0.22;;
55170;SDS011;41060;47.510;8.680;2024-02-23T05:33:31;3.53;;;0.30;;
55170;SDS011;41060;47.510;8.680;2024-02-23T05:35:58;0.90;;;0.35;;
55170;SDS011;41060;47.510;8.680;2024-02-23T05:38:25;0.80;;;0.20;;
55170;SDS011;41060;47.510;8.680;2024-02-23T05:40:52;2.63;;;0.95;;
55170;SDS011;41060;47.510;8.680;2024-02-23T05:43:20;0.30;;;0.30;;
55170;SDS011;41060;47.510;8.680;2024-02-23T05:45:47;0.25;;;0.25;;
55170;SDS011;41060;47.510;8.680;2024-02-23T05:48:15;3.78;;;1.30;;
55170;SDS011;41060;47.510;8.680;2024-02-23T05:50:46;6.45;;;2.38;;
55170;SDS011;41060;47.510;8.680;2024-02-23T05:53:13;1.95;;;1.13;;
55170;SDS011;41060;47.510;8.680;2024-02-23T05:55:40;1.50;;;0.80;;
55170;SDS011;41060;47.510;8.680;2024-02-23T05:58:07;0.85;;;0.50;;
55170;SDS011;41060;47.510;8.680;2024-02-23T06:00:34;0.77;;;0.32;;
55170;SDS011;41060;47.510;8.680;2024-02-23T06:03:01;1.15;;;0.50;;
55170;SDS011;41060;47.510;8.680;2024-02-23T06:05:28;0.90;;;0.47;;
55170;SDS011;41060;47.510;8.680;2024-02-23T06:07:56;1.50;;;0.45;;
55170;SDS011;41060;47.510;8.680;2024-02-23T06:10:24;1.48;;;0.60;;
55170;SDS011;41060;47.510;8.680;2024-02-23T06:12:50;1.17;;;0.90;;
55170;SDS011;41060;47.510;8.680;2024-02-23T06:15:17;1.60;;;0.50;;
55170;SDS011;41060;47.510;8.680;2024-02-23T06:17:44;4.03;;;1.88;;
55170;SDS011;41060;47.510;8.680;2024-02-23T06:20:11;5.75;;;1.77;;
55170;SDS011;41060;47.510;8.680;2024-02-23T06:22:38;5.32;;;1.65;;
55170;SDS011;41060;47.510;8.680;2024-02-23T06:25:07;4.00;;;1.30;;
55170;SDS011;41060;47.510;8.680;2024-02-23T06:27:34;2.65;;;1.10;;
55170;SDS011;41060;47.510;8.680;2024-02-23T06:30:02;0.90;;;0.47;;
55170;SDS011;41060;47.510;8.680;2024-02-23T06:32:29;0.75;;;0.60;;
55170;SDS011;41060;47.510;8.680;2024-02-23T06:34:55;6.45;;;0.55;;
55170;SDS011;41060;47.510;8.680;2024-02-23T06:37:22;0.75;;;0.20;;
55170;SDS011;41060;47.510;8.680;2024-02-23T06:39:49;1.13;;;0.45;;
55170;SDS011;41060;47.510;8.680;2024-02-23T06:42:20;0.70;;;0.65;;
55170;SDS011;41060;47.510;8.680;2024-02-23T06:44:47;0.93;;;0.75;;
55170;SDS011;41060;47.510;8.680;2024-02-23T06:47:15;1.08;;;0.60;;
55170;SDS011;41060;47.510;8.680;2024-02-23T06:49:41;0.60;;;0.40;;
55170;SDS011;41060;47.510;8.680;2024-02-23T06:52:08;0.70;;;0.70;;
55170;SDS011;41060;47.510;8.680;2024-02-23T06:54:35;2.35;;;0.60;;
55170;SDS011;41060;47.510;8.680;2024-02-23T06:57:02;0.57;;;0.40;;
55170;SDS011;41060;47.510;8.680;2024-02-23T06:59:30;1.55;;;0.40;;
55170;SDS011;41060;47.510;8.680;2024-02-23T07:01:58;2.35;;;0.50;;
55170;SDS011;41060;47.510;8.680;2024-02-23T07:04:24;0.28;;;0.28;;
55170;SDS011;41060;47.510;8.680;2024-02-23T07:06:52;0.40;;;0.40;;
55170;SDS011;41060;47.510;8.680;2024-02-23T07:09:21;0.68;;;0.40;;
55170;SDS011;41060;47.510;8.680;2024-02-23T07:11:48;0.70;;;0.50;;
55170;SDS011;41060;47.510;8.680;2024-02-23T07:14:15;0.88;;;0.50;;
55170;SDS011;41060;47.510;8.680;2024-02-23T07:16:45;3.40;;;0.65;;
55170;SDS011;41060;47.510;8.680;2024-02-23T07:19:14;0.50;;;0.50;;
55170;SDS011;41060;47.510;8.680;2024-02-23T07:21:41;1.27;;;0.50;;
55170;SDS011;41060;47.510;8.680;2024-02-23T07:24:11;0.60;;;0.40;;
55170;SDS011;41060;47.510;8.680;2024-02-23T07:26:38;1.08;;;0.98;;
55170;SDS011;41060;47.510;8.680;2024-02-23T07:29:05;0.55;;;0.50;;
55170;SDS011;41060;47.510;8.680;2024-02-23T07:31:32;0.40;;;0.35;;
55170;SDS011;41060;47.510;8.680;2024-02-23T07:34:00;2.15;;;0.57;;
55170;SDS011;41060;47.510;8.680;2024-02-23T07:36:27;1.23;;;0.65;;
55170;SDS011;41060;47.510;8.680;2024-02-23T07:38:54;0.70;;;0.60;;
55170;SDS011;41060;47.510;8.680;2024-02-23T07:41:21;0.90;;;0.60;;
55170;SDS011;41060;47.510;8.680;2024-02-23T07:43:47;0.52;;;0.50;;
55170;SDS011;41060;47.510;8.680;2024-02-23T07:46:22;0.80;;;0.50;;
55170;SDS011;41060;47.510;8.680;2024-02-23T07:48:50;2.08;;;0.70;;
55170;SDS011;41060;47.510;8.680;2024-02-23T07:51:20;1.52;;;0.60;;
55170;SDS011;41060;47.510;8.680;2024-02-23T07:53:46;0.82;;;0.60;;
55170;SDS011;41060;47.510;8.680;2024-02-23T07:56:13;1.20;;;0.60;;
55170;SDS011;41060;47.510;8.680;2024-02-23T07:58:40;0.90;;;0.55;;
55170;SDS011;41060;47.510;8.680;2024-02-23T08:01:07;4.22;;;0.60;;
55170;SDS011;41060;47.510;8.680;2024-02-23T08:03:33;2.47;;;0.40;;
55170;SDS011;41060;47.510;8.680;2024-02-23T08:06:01;0.57;;;0.38;;
55170;SDS011;41060;47.510;8.680;2024-02-23T08:08:31;1.20;;;0.43;;
55170;SDS011;41060;47.510;8.680;2024-02-23T08:11:00;0.85;;;0.50;;
55170;SDS011;41060;47.510;8.680;2024-02-23T08:13:27;0.60;;;0.40;;
55170;SDS011;41060;47.510;8.680;2024-02-23T08:15:53;0.38;;;0.35;;
55170;SDS011;41060;47.510;8.680;2024-02-23T08:18:20;0.47;;;0.32;;
55170;SDS011;41060;47.510;8.680;2024-02-23T08:20:49;3.00;;;0.40;;
55170;SDS011;41060;47.510;8.680;2024-02-23T08:23:16;1.48;;;0.60;;
55170;SDS011;41060;47.510;8.680;2024-02-23T08:25:45;1.95;;;1.10;;
55170;SDS011;41060;47.510;8.680;2024-02-23T08:28:13;0.82;;;0.43;;
55170;SDS011;41060;47.510;8.680;2024-02-23T08:30:40;0.88;;;0.43;;
55170;SDS011;41060;47.510;8.680;2024-02-23T08:33:07;0.65;;;0.30;;
55170;SDS011;41060;47.510;8.680;2024-02-23T08:35:35;1.13;;;0.52;;
55170;SDS011;41060;47.510;8.680;2024-02-23T08:38:02;4.38;;;1.50;;
55170;SDS011;41060;47.510;8.680;2024-02-23T08:40:29;6.25;;;2.13;;
55170;SDS011;41060;47.510;8.680;2024-02-23T08:42:57;2.67;;;1.55;;
55170;SDS011;41060;47.510;8.680;2024-02-23T08:45:24;1.55;;;0.60;;
55170;SDS011;41060;47.510;8.680;2024-02-23T08:47:52;1.50;;;0.65;;
55170;SDS011;41060;47.510;8.680;2024-02-23T08:50:20;1.38;;;0.50;;
55170;SDS011;41060;47.510;8.680;2024-02-23T08:52:48;1.33;;;0.68;;
55170;SDS011;41060;47.510;8.680;2024-02-23T08:55:15;0.40;;;0.30;;
55170;SDS011;41060;47.510;8.680;2024-02-23T08:57:42;2.13;;;0.52;;
55170;SDS011;41060;47.510;8.680;2024-02-23T09:00:11;2.15;;;0.85;;
55170;SDS011;41060;47.510;8.680;2024-02-23T09:02:39;0.70;;;0.52;;
55170;SDS011;41060;47.510;8.680;2024-02-23T09:05:08;4.43;;;0.90;;
55170;SDS011;41060;47.510;8.680;2024-02-23T09:07:34;1.15;;;0.70;;
55170;SDS011;41060;47.510;8.680;2024-02-23T09:10:01;0.57;;;0.40;;
55170;SDS011;41060;47.510;8.680;2024-02-23T09:12:30;0.98;;;0.32;;
55170;SDS011;41060;47.510;8.680;2024-02-23T09:14:57;1.15;;;0.52;;
55170;SDS011;41060;47.510;8.680;2024-02-23T09:17:26;2.00;;;0.52;;
55170;SDS011;41060;47.510;8.680;2024-02-23T09:19:53;0.30;;;0.25;;
55170;SDS011;41060;47.510;8.680;2024-02-23T09:22:20;4.18;;;0.80;;
55170;SDS011;41060;47.510;8.680;2024-02-23T09:24:47;5.57;;;1.10;;
55170;SDS011;41060;47.510;8.680;2024-02-23T09:27:15;3.30;;;1.25;;
55170;SDS011;41060;47.510;8.680;2024-02-23T09:29:41;3.10;;;1.20;;
55170;SDS011;41060;47.510;8.680;2024-02-23T09:32:08;1.52;;;0.70;;
55170;SDS011;41060;47.510;8.680;2024-02-23T09:34:37;0.80;;;0.47;;
55170;SDS011;41060;47.510;8.680;2024-02-23T09:37:06;1.90;;;0.70;;
55170;SDS011;41060;47.510;8.680;2024-02-23T09:39:33;0.75;;;0.50;;
55170;SDS011;41060;47.510;8.680;2024-02-23T09:42:00;3.28;;;0.52;;
55170;SDS011;41060;47.510;8.680;2024-02-23T09:44:32;1.23;;;0.50;;
55170;SDS011;41060;47.510;8.680;2024-02-23T09:47:00;3.80;;;0.90;;
55170;SDS011;41060;47.510;8.680;2024-02-23T09:49:33;3.63;;;0.65;;
55170;SDS011;41060;47.510;8.680;2024-02-23T09:52:03;1.92;;;0.73;;
55170;SDS011;41060;47.510;8.680;2024-02-23T09:54:36;0.73;;;0.45;;
55170;SDS011;41060;47.510;8.680;2024-02-23T09:57:05;2.58;;;0.70;;
55170;SDS011;41060;47.510;8.680;2024-02-23T09:59:33;1.30;;;0.68;;
55170;SDS011;41060;47.510;8.680;2024-02-23T10:02:03;2.97;;;1.00;;
55170;SDS011;41060;47.510;8.680;2024-02-23T10:04:35;4.68;;;1.00;;
55170;SDS011;41060;47.510;8.680;2024-02-23T10:07:05;1.60;;;0.60;;
55170;SDS011;41060;47.510;8.680;2024-02-23T10:09:32;0.70;;;0.30;;
55170;SDS011;41060;47.510;8.680;2024-02-23T10:11:59;1.02;;;0.55;;
55170;SDS011;41060;47.510;8.680;2024-02-23T10:14:26;2.22;;;0.43;;
55170;SDS011;41060;47.510;8.680;2024-02-23T10:16:52;3.42;;;0.70;;
55170;SDS011;41060;47.510;8.680;2024-02-23T10:19:20;3.55;;;0.65;;
55170;SDS011;41060;47.510;8.680;2024-02-23T10:21:48;0.88;;;0.32;;
55170;SDS011;41060;47.510;8.680;2024-02-23T10:24:17;3.70;;;0.80;;
55170;SDS011;41060;47.510;8.680;2024-02-23T10:26:47;1.80;;;0.63;;
55170;SDS011;41060;47.510;8.680;2024-02-23T10:29:13;3.17;;;1.00;;
55170;SDS011;41060;47.510;8.680;2024-02-23T10:31:40;2.90;;;0.55;;
55170;SDS011;41060;47.510;8.680;2024-02-23T10:34:08;2.80;;;0.80;;
55170;SDS011;41060;47.510;8.680;2024-02-23T10:36:37;1.25;;;0.52;;
55170;SDS011;41060;47.510;8.680;2024-02-23T10:39:08;4.80;;;0.80;;
55170;SDS011;41060;47.510;8.680;2024-02-23T10:41:39;2.00;;;0.98;;
55170;SDS011;41060;47.510;8.680;2024-02-23T10:44:12;5.38;;;1.00;;
55170;SDS011;41060;47.510;8.680;2024-02-23T10:46:42;5.60;;;1.10;;
55170;SDS011;41060;47.510;8.680;2024-02-23T10:49:12;1.52;;;0.75;;
55170;SDS011;41060;47.510;8.680;2024-02-23T10:51:41;1.45;;;0.43;;
55170;SDS011;41060;47.510;8.680;2024-02-23T10:54:09;8.80;;;1.80;;
55170;SDS011;41060;47.510;8.680;2024-02-23T10:56:39;3.90;;;1.10;;
55170;SDS011;41060;47.510;8.680;2024-02-23T10:59:06;6.00;;;1.80;;
55170;SDS011;41060;47.510;8.680;2024-02-23T11:01:34;2.90;;;1.02;;
55170;SDS011;41060;47.510;8.680;2024-02-23T11:04:03;1.38;;;0.60;;
55170;SDS011;41060;47.510;8.680;2024-02-23T11:06:32;2.65;;;0.55;;
55170;SDS011;41060;47.510;8.680;2024-02-23T11:09:05;3.03;;;1.70;;
55170;SDS011;41060;47.510;8.680;2024-02-23T11:11:34;3.50;;;0.50;;
55170;SDS011;41060;47.510;8.680;2024-02-23T11:14:06;0.88;;;0.60;;
55170;SDS011;41060;47.510;8.680;2024-02-23T11:16:37;1.45;;;0.63;;
55170;SDS011;41060;47.510;8.680;2024-02-23T11:19:05;2.10;;;0.68;;
55170;SDS011;41060;47.510;8.680;2024-02-23T11:21:34;2.55;;;0.57;;
55170;SDS011;41060;47.510;8.680;2024-02-23T11:24:02;1.25;;;0.50;;
55170;SDS011;41060;47.510;8.680;2024-02-23T11:26:29;1.88;;;0.60;;
55170;SDS011;41060;47.510;8.680;2024-02-23T11:28:57;0.20;;;0.20;;
55170;SDS011;41060;47.510;8.680;2024-02-23T11:31:29;0.50;;;0.43;;
55170;SDS011;41060;47.510;8.680;2024-02-23T11:34:00;1.73;;;0.57;;
55170;SDS011;41060;47.510;8.680;2024-02-23T11:36:27;2.55;;;0.32;;
55170;SDS011;41060;47.510;8.680;2024-02-23T11:38:56;1.38;;;0.43;;
55170;SDS011;41060;47.510;8.680;2024-02-23T11:41:28;2.08;;;0.60;;
55170;SDS011;41060;47.510;8.680;2024-02-23T11:43:55;1.90;;;0.90;;
55170;SDS011;41060;47.510;8.680;2024-02-23T11:46:23;2.40;;;0.52;;
55170;SDS011;41060;47.510;8.680;2024-02-23T11:48:52;1.00;;;0.35;;
55170;SDS011;41060;47.510;8.680;2024-02-23T11:51:19;0.55;;;0.40;;
55170;SDS011;41060;47.510;8.680;2024-02-23T11:53:47;3.83;;;0.35;;
55170;SDS011;41060;47.510;8.680;2024-02-23T11:56:14;1.65;;;0.50;;
55170;SDS011;41060;47.510;8.680;2024-02-23T11:58:42;4.65;;;0.73;;
55170;SDS011;41060;47.510;8.680;2024-02-23T12:01:09;1.20;;;0.43;;
55170;SDS011;41060;47.510;8.680;2024-02-23T12:03:38;2.83;;;0.35;;
55170;SDS011;41060;47.510;8.680;2024-02-23T12:06:07;2.38;;;0.38;;
55170;SDS011;41060;47.510;8.680;2024-02-23T12:08:34;0.30;;;0.15;;
55170;SDS011;41060;47.510;8.680;2024-02-23T12:11:04;3.13;;;1.10;;
55170;SDS011;41060;47.510;8.680;2024-02-23T12:13:33;1.48;;;0.52;;
55170;SDS011;41060;47.510;8.680;2024-02-23T12:16:00;3.47;;;0.60;;
55170;SDS011;41060;47.510;8.680;2024-02-23T12:18:28;0.38;;;0.30;;
55170;SDS011;41060;47.510;8.680;2024-02-23T12:20:58;4.05;;;0.30;;
55170;SDS011;41060;47.510;8.680;2024-02-23T12:23:27;1.77;;;0.82;;
55170;SDS011;41060;47.510;8.680;2024-02-23T12:26:04;1.70;;;0.38;;
55170;SDS011;41060;47.510;8.680;2024-02-23T12:28:30;1.13;;;0.30;;
55170;SDS011;41060;47.510;8.680;2024-02-23T12:30:58;1.40;;;0.38;;
55170;SDS011;41060;47.510;8.680;2024-02-23T12:33:27;1.17;;;0.47;;
55170;SDS011;41060;47.510;8.680;2024-02-23T12:35:54;0.70;;;0.30;;
55170;SDS011;41060;47.510;8.680;2024-02-23T12:38:22;1.60;;;0.43;;
55170;SDS011;41060;47.510;8.680;2024-02-23T12:40:50;0.85;;;0.45;;
55170;SDS011;41060;47.510;8.680;2024-02-23T12:43:17;0.90;;;0.50;;
55170;SDS011;41060;47.510;8.680;2024-02-23T12:45:46;0.60;;;0.30;;
55170;SDS011;41060;47.510;8.680;2024-02-23T12:48:15;1.85;;;0.85;;
55170;SDS011;41060;47.510;8.680;2024-02-23T12:50:45;0.98;;;0.30;;
55170;SDS011;41060;47.510;8.680;2024-02-23T12:53:12;2.58;;;0.40;;
55170;SDS011;41060;47.510;8.680;2024-02-23T12:55:59;0.43;;;0.30;;
55170;SDS011;41060;47.510;8.680;2024-02-23T12:58:27;2.47;;;0.43;;
55170;SDS011;41060;47.510;8.680;2024-02-23T13:00:53;1.20;;;0.45;;
55170;SDS011;41060;47.510;8.680;2024-02-23T13:03:21;0.77;;;0.30;;
55170;SDS011;41060;47.510;8.680;2024-02-23T13:05:47;0.63;;;0.32;;
55170;SDS011;41060;47.510;8.680;2024-02-23T13:08:14;0.25;;;0.20;;
55170;SDS011;41060;47.510;8.680;2024-02-23T13:10:41;2.58;;;0.30;;
55170;SDS011;41060;47.510;8.680;2024-02-23T13:13:09;4.82;;;0.30;;
55170;SDS011;41060;47.510;8.680;2024-02-23T13:15:37;1.48;;;0.38;;
55170;SDS011;41060;47.510;8.680;2024-02-23T13:18:05;0.40;;;0.20;;
55170;SDS011;41060;47.510;8.680;2024-02-23T13:20:32;0.28;;;0.20;;
55170;SDS011;41060;47.510;8.680;2024-02-23T13:22:58;1.63;;;0.73;;
55170;SDS011;41060;47.510;8.680;2024-02-23T13:25:25;1.55;;;0.70;;
55170;SDS011;41060;47.510;8.680;2024-02-23T13:27:52;2.05;;;0.47;;
55170;SDS011;41060;47.510;8.680;2024-02-23T13:30:20;1.20;;;0.30;;
55170;SDS011;41060;47.510;8.680;2024-02-23T13:32:47;0.22;;;0.20;;
55170;SDS011;41060;47.510;8.680;2024-02-23T13:35:14;2.25;;;0.47;;
55170;SDS011;41060;47.510;8.680;2024-02-23T13:37:42;1.77;;;0.30;;
55170;SDS011;41060;47.510;8.680;2024-02-23T13:40:09;0.28;;;0.28;;
55170;SDS011;41060;47.510;8.680;2024-02-23T13:42:36;0.50;;;0.22;;
55170;SDS011;41060;47.510;8.680;2024-02-23T13:45:05;0.65;;;0.32;;
55170;SDS011;41060;47.510;8.680;2024-02-23T13:47:35;6.60;;;0.40;;
55170;SDS011;41060;47.510;8.680;2024-02-23T13:50:01;0.30;;;0.30;;
55170;SDS011;41060;47.510;8.680;2024-02-23T13:52:28;0.40;;;0.30;;
55170;SDS011;41060;47.510;8.680;2024-02-23T13:54:56;0.40;;;0.20;;
55170;SDS011;41060;47.510;8.680;2024-02-23T13:57:22;1.50;;;0.45;;
55170;SDS011;41060;47.510;8.680;2024-02-23T13:59:49;0.68;;;0.32;;
55170;SDS011;41060;47.510;8.680;2024-02-23T14:02:16;0.25;;;0.20;;
55170;SDS011;41060;47.510;8.680;2024-02-23T14:04:52;0.63;;;0.20;;
55170;SDS011;41060;47.510;8.680;2024-02-23T14:07:20;0.70;;;0.20;;
55170;SDS011;41060;47.510;8.680;2024-02-23T14:09:46;0.38;;;0.38;;
55170;SDS011;41060;47.510;8.680;2024-02-23T14:12:13;2.47;;;0.50;;
55170;SDS011;41060;47.510;8.680;2024-02-23T14:14:40;2.25;;;0.25;;
55170;SDS011;41060;47.510;8.680;2024-02-23T14:17:10;0.60;;;0.32;;
55170;SDS011;41060;47.510;8.680;2024-02-23T14:19:38;0.70;;;0.30;;
55170;SDS011;41060;47.510;8.680;2024-02-23T14:22:06;1.65;;;0.20;;
55170;SDS011;41060;47.510;8.680;2024-02-23T14:24:33;1.83;;;0.47;;
55170;SDS011;41060;47.510;8.680;2024-02-23T14:27:00;0.40;;;0.25;;
55170;SDS011;41060;47.510;8.680;2024-02-23T14:29:27;0.25;;;0.20;;
55170;SDS011;41060;47.510;8.680;2024-02-23T14:31:54;0.40;;;0.30;;
55170;SDS011;41060;47.510;8.680;2024-02-23T14:34:20;1.65;;;0.30;;
55170;SDS011;41060;47.510;8.680;2024-02-23T14:36:49;1.83;;;0.30;;
55170;SDS011;41060;47.510;8.680;2024-02-23T14:39:17;0.55;;;0.38;;
55170;SDS011;41060;47.510;8.680;2024-02-23T14:41:44;0.32;;;0.20;;
55170;SDS011;41060;47.510;8.680;2024-02-23T14:44:11;1.73;;;0.63;;
55170;SDS011;41060;47.510;8.680;2024-02-23T14:46:38;2.15;;;0.40;;
55170;SDS011;41060;47.510;8.680;2024-02-23T14:49:05;1.10;;;0.43;;
55170;SDS011;41060;47.510;8.680;2024-02-23T14:51:35;0.93;;;0.30;;